Time;durP1;ratioP1;P1;durP2;ratioP2;P2;SDS_P1;SDS_P2;PMS_P1;PMS_P2;Temp;Humidity;BMP_temperature;BMP_pressure;BME280_temperature;BME280_humidity;BME280_pressure;Samples;Min_cycle;Max_cycle;Signal;HPM_P1;HPM_P2
2023/03/16 00:00:12;;;;;;;29.00;19.73;;;;;;;;;;10287290;28;20072;-59
2023/03/16 00:05:12;;;;;;;33.65;23.30;;;;;;;;;;10293367;28;20076;-60
2023/03/16 00:10:12;;;;;;;38.15;24.90;;;;;;;;;;10290187;28;20505;-59
2023/03/16 00:15:11;;;;;;;29.85;21.20;;;;;;;;;;10285556;28;20080;-59
2023/03/16 00:20:10;;;;;;;36.08;23.02;;;;;;;;;;10288670;28;20072;-60
2023/03/16 00:25:09;;;;;;;29.92;22.77;;;;;;;;;;10289411;28;20079;-59
2023/03/16 00:30:08;;;;;;;28.52;22.20;;;;;;;;;;10288607;28;20075;-60
2023/03/16 00:35:08;;;;;;;26.17;20.35;;;;;;;;;;10290564;28;20091;-59
2023/03/16 00:40:08;;;;;;;27.60;22.00;;;;;;;;;;10289688;28;20079;-60
2023/03/16 00:45:07;;;;;;;28.63;22.02;;;;;;;;;;10287622;28;20087;-60
2023/03/16 00:50:06;;;;;;;26.45;22.90;;;;;;;;;;10289504;28;20064;-58
2023/03/16 00:55:07;;;;;;;27.45;22.00;;;;;;;;;;10289712;28;20076;-59
2023/03/16 01:00:13;;;;;;;29.83;24.40;;;;;;;;;;10290186;28;20477;-59
2023/03/16 01:05:12;;;;;;;28.23;22.27;;;;;;;;;;10304138;28;20830;-59
2023/03/16 01:10:12;;;;;;;37.95;24.92;;;;;;;;;;10289104;28;20079;-60
2023/03/16 01:15:11;;;;;;;31.23;25.27;;;;;;;;;;10289028;28;20557;-59
2023/03/16 01:20:13;;;;;;;36.35;25.83;;;;;;;;;;10288819;28;20072;-60
2023/03/16 01:25:13;;;;;;;32.00;25.23;;;;;;;;;;10292564;28;20089;-61
2023/03/16 01:30:12;;;;;;;31.23;26.88;;;;;;;;;;10288403;28;20067;-60
2023/03/16 01:35:11;;;;;;;31.42;25.90;;;;;;;;;;10287321;28;20077;-59
2023/03/16 01:40:11;;;;;;;34.78;26.10;;;;;;;;;;10287016;28;20111;-60
2023/03/16 01:45:24;;;;;;;42.55;29.70;;;;;;;;;;10288940;28;20080;-60
2023/03/16 01:50:24;;;;;;;38.83;28.67;;;;;;;;;;10292366;28;20081;-60
2023/03/16 01:55:23;;;;;;;37.05;27.00;;;;;;;;;;10292051;28;20076;-61
2023/03/16 02:00:24;;;;;;;38.05;29.27;;;;;;;;;;10303010;28;20502;-59
2023/03/16 02:05:36;;;;;;;40.50;31.23;;;;;;;;;;10295026;28;20075;-60
2023/03/16 02:10:35;;;;;;;43.35;30.27;;;;;;;;;;10299202;28;20072;-59
2023/03/16 02:15:35;;;;;;;42.55;29.88;;;;;;;;;;10294882;28;20041;-60
2023/03/16 02:20:41;;;;;;;46.60;31.80;;;;;;;;;;10294414;28;20052;-60
2023/03/16 02:25:40;;;;;;;;;;;;;;;;;;10297503;28;20087;-60
2023/03/16 02:30:40;;;;;;;35.50;27.08;;;;;;;;;;10292752;28;19963;-57
2023/03/16 02:35:38;;;;;;;38.97;28.65;;;;;;;;;;10294770;28;20065;-59
2023/03/16 02:40:38;;;;;;;44.30;31.30;;;;;;;;;;10299886;28;20049;-59
2023/03/16 02:45:43;;;;;;;41.63;30.33;;;;;;;;;;10293581;28;20092;-60
2023/03/16 02:50:46;;;;;;;40.33;29.80;;;;;;;;;;10293135;28;20079;-59
2023/03/16 02:55:45;;;;;;;38.28;29.70;;;;;;;;;;10294665;28;20068;-59
2023/03/16 03:00:45;;;;;;;41.20;28.90;;;;;;;;;;10292959;28;20083;-59
2023/03/16 03:05:46;;;;;;;34.78;26.23;;;;;;;;;;10293561;28;20072;-60
2023/03/16 03:10:45;;;;;;;38.17;24.90;;;;;;;;;;10292036;28;20087;-60
2023/03/16 03:15:45;;;;;;;31.98;25.83;;;;;;;;;;10301152;28;20506;-60
2023/03/16 03:20:43;;;;;;;33.30;25.02;;;;;;;;;;10293629;28;20040;-60
2023/03/16 03:25:41;;;;;;;32.65;27.08;;;;;;;;;;10292173;28;20060;-60
2023/03/16 03:30:40;;;;;;;32.97;24.42;;;;;;;;;;10294088;28;20468;-60
2023/03/16 03:35:40;;;;;;;31.73;24.58;;;;;;;;;;10290980;28;20072;-59
2023/03/16 03:40:39;;;;;;;38.05;28.73;;;;;;;;;;10290316;28;20091;-60
2023/03/16 03:45:38;;;;;;;29.13;23.92;;;;;;;;;;10292031;28;20077;-59
2023/03/16 03:50:39;;;;;;;33.70;27.65;;;;;;;;;;10296323;28;20087;-60
2023/03/16 03:55:52;;;;;;;;;;;;;;;;;;10291254;28;20505;-60
2023/03/16 04:00:51;;;;;;;31.90;23.25;;;;;;;;;;10290283;28;19952;-61
2023/03/16 04:05:50;;;;;;;24.17;20.85;;;;;;;;;;10289586;28;20526;-60
2023/03/16 04:10:48;;;;;;;23.15;20.77;;;;;;;;;;10284316;28;20040;-58
2023/03/16 04:15:46;;;;;;;23.45;20.83;;;;;;;;;;10299831;28;20077;-58
2023/03/16 04:20:52;;;;;;;;;;;;;;;;;;10292595;28;20071;-59
2023/03/16 04:25:53;;;;;;;27.00;21.33;;;;;;;;;;10286734;28;20404;-59
2023/03/16 04:30:53;;;;;;;25.55;20.80;;;;;;;;;;10296044;28;20083;-60
2023/03/16 04:35:58;;;;;;;24.63;17.75;;;;;;;;;;10290216;28;20473;-60
2023/03/16 04:40:58;;;;;;;23.52;18.40;;;;;;;;;;10296143;28;20068;-59
2023/03/16 04:46:02;;;;;;;20.63;16.98;;;;;;;;;;10292588;28;20087;-60
2023/03/16 04:51:02;;;;;;;18.02;14.77;;;;;;;;;;10288703;28;20090;-59
2023/03/16 04:56:06;;;;;;;15.95;14.13;;;;;;;;;;10286519;28;20072;-61
2023/03/16 05:01:06;;;;;;;16.77;13.95;;;;;;;;;;10293663;28;20044;-60
2023/03/16 05:06:04;;;;;;;16.92;14.98;;;;;;;;;;10290066;28;20068;-59
2023/03/16 05:11:06;;;;;;;17.10;14.02;;;;;;;;;;10287403;28;20451;-59
2023/03/16 05:16:09;;;;;;;21.38;14.55;;;;;;;;;;10295986;28;20079;-60
2023/03/16 05:21:11;;;;;;;20.08;17.52;;;;;;;;;;10300808;28;20489;-61
2023/03/16 05:26:34;;;;;;;15.30;13.80;;;;;;;;;;10312626;28;20108;-61
2023/03/16 05:31:36;;;;;;;19.27;12.93;;;;;;;;;;10297723;28;20099;-61
2023/03/16 05:36:40;;;;;;;16.42;13.95;;;;;;;;;;10295323;28;20087;-59
2023/03/16 05:41:44;;;;;;;17.98;13.23;;;;;;;;;;10293632;28;20084;-60
2023/03/16 05:47:00;;;;;;;16.67;11.60;;;;;;;;;;10299515;28;20129;-59
2023/03/16 05:52:00;;;;;;;14.80;13.20;;;;;;;;;;10303694;28;20094;-58
2023/03/16 05:57:02;;;;;;;16.50;14.80;;;;;;;;;;10298185;28;20502;-59
2023/03/16 06:02:01;;;;;;;17.58;14.02;;;;;;;;;;10290254;28;20072;-58
2023/03/16 06:06:59;;;;;;;19.13;13.40;;;;;;;;;;10281888;28;20069;-59
2023/03/16 06:11:59;;;;;;;14.05;12.55;;;;;;;;;;10284253;28;20517;-58
2023/03/16 06:16:59;;;;;;;14.20;12.73;;;;;;;;;;10275919;28;20428;-60
2023/03/16 06:21:57;;;;;;;14.07;12.68;;;;;;;;;;10287262;28;20076;-60
2023/03/16 06:26:56;;;;;;;19.23;13.32;;;;;;;;;;10296228;28;20076;-60
2023/03/16 06:32:01;;;;;;;13.87;12.10;;;;;;;;;;10298085;28;20041;-60
2023/03/16 06:37:00;;;;;;;14.65;13.07;;;;;;;;;;10289479;28;20075;-60
2023/03/16 06:41:59;;;;;;;24.80;18.85;;;;;;;;;;10288574;28;20064;-60
2023/03/16 06:46:57;;;;;;;14.88;12.43;;;;;;;;;;10282245;28;20072;-60
2023/03/16 06:51:57;;;;;;;11.95;10.68;;;;;;;;;;10289734;28;20069;-60
2023/03/16 06:56:56;;;;;;;12.98;11.00;;;;;;;;;;10293340;28;20072;-61
2023/03/16 07:01:54;;;;;;;14.90;11.20;;;;;;;;;;10291096;28;20069;-61
2023/03/16 07:06:52;;;;;;;13.90;11.63;;;;;;;;;;10288661;28;20091;-60
2023/03/16 07:11:52;;;;;;;14.52;12.60;;;;;;;;;;10293413;28;20064;-62
2023/03/16 07:16:51;;;;;;;21.33;13.07;;;;;;;;;;10293957;28;20069;-60
2023/03/16 07:21:52;;;;;;;22.55;14.82;;;;;;;;;;10295556;28;20076;-60
2023/03/16 07:26:53;;;;;;;21.08;14.10;;;;;;;;;;10289337;28;20083;-60
2023/03/16 07:31:58;;;;;;;13.90;12.43;;;;;;;;;;10291849;28;20083;-60
2023/03/16 07:37:04;;;;;;;18.25;12.98;;;;;;;;;;10286958;28;20080;-60
2023/03/16 07:42:05;;;;;;;20.60;17.80;;;;;;;;;;10296848;28;20134;-60
2023/03/16 07:47:20;;;;;;;16.63;13.35;;;;;;;;;;10289055;28;20075;-60
2023/03/16 07:52:22;;;;;;;13.80;12.50;;;;;;;;;;10287707;28;20087;-60
2023/03/16 07:57:23;;;;;;;14.50;11.50;;;;;;;;;;10292120;28;20048;-60
2023/03/16 08:02:22;;;;;;;21.90;12.52;;;;;;;;;;10302915;28;20045;-60
2023/03/16 08:07:21;;;;;;;18.70;14.65;;;;;;;;;;10289243;28;20083;-59
2023/03/16 08:12:30;;;;;;;22.52;17.88;;;;;;;;;;10288844;28;20091;-59
2023/03/16 08:17:29;;;;;;;12.38;10.90;;;;;;;;;;10295600;28;20103;-59
2023/03/16 08:22:31;;;;;;;17.73;11.77;;;;;;;;;;10294552;28;20499;-60
2023/03/16 08:27:31;;;;;;;19.25;13.50;;;;;;;;;;10293315;28;20090;-58
2023/03/16 08:32:34;;;;;;;28.52;13.18;;;;;;;;;;10297351;28;20072;-58
2023/03/16 08:37:33;;;;;;;26.80;16.85;;;;;;;;;;10294015;28;20087;-59
2023/03/16 08:42:32;;;;;;;31.10;24.08;;;;;;;;;;10297087;28;20082;-59
2023/03/16 08:47:33;;;;;;;37.22;26.45;;;;;;;;;;10288941;28;20087;-59
2023/03/16 08:52:32;;;;;;;25.60;19.02;;;;;;;;;;10284872;28;20080;-59
2023/03/16 08:57:31;;;;;;;28.65;22.23;;;;;;;;;;10287760;28;20079;-59
2023/03/16 09:02:31;;;;;;;16.83;15.07;;;;;;;;;;10288902;28;20077;-59
2023/03/16 09:07:29;;;;;;;14.52;12.35;;;;;;;;;;10287896;28;20075;-60
2023/03/16 09:12:27;;;;;;;16.38;13.23;;;;;;;;;;10288772;28;20064;-58
2023/03/16 09:17:26;;;;;;;17.20;13.07;;;;;;;;;;10290473;28;20072;-59
2023/03/16 09:22:25;;;;;;;16.67;14.30;;;;;;;;;;10288618;28;20083;-59
2023/03/16 09:27:24;;;;;;;14.05;12.63;;;;;;;;;;10289411;28;20083;-58
2023/03/16 09:32:22;;;;;;;13.68;12.38;;;;;;;;;;10288485;28;20068;-59
2023/03/16 09:37:22;;;;;;;11.10;9.93;;;;;;;;;;10284939;28;20095;-59
2023/03/16 09:42:27;;;;;;;14.48;12.55;;;;;;;;;;10289037;28;20076;-58
2023/03/16 09:47:27;;;;;;;13.70;10.50;;;;;;;;;;10282894;28;20088;-59
2023/03/16 09:52:29;;;;;;;14.43;12.40;;;;;;;;;;10287981;28;20087;-59
2023/03/16 09:57:30;;;;;;;29.20;22.50;;;;;;;;;;10287390;28;20072;-59
2023/03/16 10:02:40;;;;;;;12.70;11.45;;;;;;;;;;10294499;28;20509;-60
2023/03/16 10:07:42;;;;;;;11.90;10.70;;;;;;;;;;10294792;28;20072;-59
2023/03/16 10:12:45;;;;;;;14.88;13.38;;;;;;;;;;10295004;28;20060;-60
2023/03/16 10:17:44;;;;;;;14.57;13.10;;;;;;;;;;10293385;28;21256;-60
2023/03/16 10:22:44;;;;;;;13.82;12.40;;;;;;;;;;10296669;28;20053;-59
2023/03/16 10:27:44;;;;;;;14.50;12.95;;;;;;;;;;10297330;28;20431;-60
2023/03/16 10:32:43;;;;;;;16.70;14.90;;;;;;;;;;10293159;28;20073;-59
2023/03/16 10:37:41;;;;;;;20.25;15.85;;;;;;;;;;10289407;28;20514;-60
2023/03/16 10:42:40;;;;;;;21.77;16.00;;;;;;;;;;10292347;28;20075;-60
2023/03/16 10:47:39;;;;;;;18.52;14.73;;;;;;;;;;10293439;28;20465;-59
2023/03/16 10:52:39;;;;;;;21.52;15.57;;;;;;;;;;10291259;28;20052;-60
2023/03/16 10:57:41;;;;;;;20.38;15.93;;;;;;;;;;10294665;28;20495;-59
2023/03/16 11:02:41;;;;;;;24.60;19.30;;;;;;;;;;10292877;28;20072;-60
2023/03/16 11:07:39;;;;;;;23.85;19.98;;;;;;;;;;10294062;28;20080;-60
2023/03/16 11:12:37;;;;;;;17.23;12.98;;;;;;;;;;10292531;28;20113;-60
2023/03/16 11:17:37;;;;;;;16.38;14.70;;;;;;;;;;10289286;28;20068;-60
2023/03/16 11:22:37;;;;;;;11.95;10.75;;;;;;;;;;10292883;28;20522;-60
2023/03/16 11:27:36;;;;;;;13.10;11.70;;;;;;;;;;10296592;28;20509;-59
2023/03/16 11:32:36;;;;;;;23.08;14.02;;;;;;;;;;10288446;28;20078;-60
2023/03/16 11:37:46;;;;;;;20.75;14.63;;;;;;;;;;10290890;28;20085;-59
2023/03/16 11:42:48;;;;;;;15.98;11.80;;;;;;;;;;10293188;28;20484;-60
2023/03/16 11:47:58;;;;;;;13.50;11.18;;;;;;;;;;10282646;28;20071;-60
2023/03/16 11:53:00;;;;;;;21.77;15.48;;;;;;;;;;10271290;28;20498;-60
2023/03/16 11:58:03;;;;;;;28.70;18.42;;;;;;;;;;10282991;28;20569;-60
2023/03/16 12:03:16;;;;;;;17.83;13.07;;;;;;;;;;10282164;28;20569;-59
2023/03/16 12:08:24;;;;;;;21.52;16.95;;;;;;;;;;10279264;28;20576;-60
2023/03/16 12:13:37;;;;;;;23.17;17.65;;;;;;;;;;10285101;28;20079;-59
2023/03/16 12:18:38;;;;;;;13.63;11.50;;;;;;;;;;10286556;28;20095;-60
2023/03/16 12:23:39;;;;;;;13.82;12.50;;;;;;;;;;10287153;28;20091;-58
2023/03/16 12:28:38;;;;;;;13.48;12.07;;;;;;;;;;10288215;28;20072;-59
2023/03/16 12:33:42;;;;;;;11.30;10.18;;;;;;;;;;10287481;28;20064;-59
2023/03/16 12:38:45;;;;;;;17.83;14.97;;;;;;;;;;10307394;28;20080;-60
2023/03/16 12:43:52;;;;;;;9.68;8.50;;;;;;;;;;10284639;28;20140;-59
2023/03/16 12:48:53;;;;;;;9.93;8.88;;;;;;;;;;10284320;28;20131;-59
2023/03/16 12:53:56;;;;;;;10.80;9.70;;;;;;;;;;10288246;28;20076;-58
2023/03/16 12:58:55;;;;;;;12.40;10.93;;;;;;;;;;10290249;28;20072;-59
2023/03/16 13:03:59;;;;;;;10.98;9.50;;;;;;;;;;10289241;28;20530;-59
2023/03/16 13:09:00;;;;;;;11.93;10.73;;;;;;;;;;10288267;28;20443;-58
2023/03/16 13:14:09;;;;;;;10.65;9.55;;;;;;;;;;10288344;28;20095;-60
2023/03/16 13:19:17;;;;;;;12.73;10.43;;;;;;;;;;10288381;28;20068;-59
2023/03/16 13:24:27;;;;;;;14.18;11.90;;;;;;;;;;10286998;28;20188;-59
2023/03/16 13:29:26;;;;;;;37.53;29.52;;;;;;;;;;10286306;28;20505;-59
2023/03/16 13:34:27;;;;;;;50.75;37.42;;;;;;;;;;10293115;28;20068;-59
2023/03/16 13:39:28;;;;;;;14.85;13.32;;;;;;;;;;10294259;28;20666;-59
2023/03/16 13:44:26;;;;;;;14.25;11.32;;;;;;;;;;10296218;28;20045;-59
2023/03/16 13:49:24;;;;;;;15.45;12.02;;;;;;;;;;10295654;28;20100;-59
2023/03/16 13:54:24;;;;;;;12.32;10.98;;;;;;;;;;10299109;28;20072;-59
2023/03/16 13:59:24;;;;;;;16.38;14.55;;;;;;;;;;10295362;28;20068;-60
2023/03/16 14:04:23;;;;;;;20.85;18.65;;;;;;;;;;10296998;28;20067;-60
2023/03/16 14:09:24;;;;;;;17.77;14.90;;;;;;;;;;10296992;28;20116;-59
2023/03/16 14:14:25;;;;;;;29.50;24.10;;;;;;;;;;10293978;28;20072;-59
2023/03/16 14:19:26;;;;;;;18.08;15.00;;;;;;;;;;10295106;28;20467;-59
2023/03/16 14:24:29;;;;;;;13.65;12.25;;;;;;;;;;10297053;28;20077;-58
2023/03/16 14:29:30;;;;;;;13.45;11.65;;;;;;;;;;10295890;28;20068;-59
2023/03/16 14:34:29;;;;;;;14.50;11.40;;;;;;;;;;10294568;28;20076;-58
2023/03/16 14:39:27;;;;;;;23.60;19.00;;;;;;;;;;10293033;28;20081;-58
2023/03/16 14:44:29;;;;;;;13.40;12.00;;;;;;;;;;10291233;28;20084;-59
2023/03/16 14:49:29;;;;;;;15.38;12.73;;;;;;;;;;10294252;28;20072;-60
2023/03/16 14:54:28;;;;;;;15.60;13.98;;;;;;;;;;10294643;28;20072;-60
2023/03/16 14:59:26;;;;;;;17.10;11.63;;;;;;;;;;10292813;28;20080;-59
2023/03/16 15:04:27;;;;;;;15.13;11.40;;;;;;;;;;10290669;28;20473;-59
2023/03/16 15:09:33;;;;;;;19.23;16.20;;;;;;;;;;10282356;28;20072;-60
2023/03/16 15:19:49;;;;;;;35.33;22.35;;;;;;;;;;10289805;28;20533;-59
2023/03/16 15:24:48;;;;;;;23.90;18.50;;;;;;;;;;10287022;28;20065;-58
2023/03/16 15:29:46;;;;;;;15.85;13.20;;;;;;;;;;10291474;28;20083;-59
2023/03/16 15:34:45;;;;;;;17.88;13.98;;;;;;;;;;10291311;28;20084;-60
2023/03/16 15:39:44;;;;;;;24.58;18.48;;;;;;;;;;10290850;28;20514;-59
2023/03/16 15:44:44;;;;;;;21.85;19.42;;;;;;;;;;10286043;28;20510;-59
2023/03/16 15:49:43;;;;;;;26.48;19.52;;;;;;;;;;10283295;28;20076;-59
2023/03/16 15:54:45;;;;;;;23.73;19.13;;;;;;;;;;10286627;28;20068;-60
2023/03/16 15:59:46;;;;;;;17.88;16.02;;;;;;;;;;10282918;28;20120;-61
2023/03/16 16:04:44;;;;;;;16.80;15.02;;;;;;;;;;10283050;28;20076;-60
2023/03/16 16:09:43;;;;;;;39.40;31.15;;;;;;;;;;10289941;28;20076;-61
2023/03/16 16:14:41;;;;;;;28.92;23.25;;;;;;;;;;10280190;28;20092;-60
2023/03/16 16:19:41;;;;;;;18.08;15.55;;;;;;;;;;10288600;28;20083;-60
2023/03/16 16:24:39;;;;;;;64.97;47.30;;;;;;;;;;10286909;28;20088;-60
2023/03/16 16:29:37;;;;;;;40.80;30.90;;;;;;;;;;10285852;28;20072;-57
2023/03/16 16:34:36;;;;;;;29.77;24.75;;;;;;;;;;10278992;28;20080;-56
2023/03/16 16:39:35;;;;;;;31.98;25.33;;;;;;;;;;10287954;28;20080;-60
2023/03/16 16:44:33;;;;;;;74.80;57.53;;;;;;;;;;10288206;28;20525;-59
2023/03/16 16:49:36;;;;;;;45.08;35.95;;;;;;;;;;10285249;28;20474;-56
2023/03/16 16:54:36;;;;;;;14.27;12.00;;;;;;;;;;10291240;28;20079;-59
2023/03/16 16:59:37;;;;;;;18.58;16.00;;;;;;;;;;10282458;28;20060;-57
2023/03/16 17:04:35;;;;;;;24.38;20.65;;;;;;;;;;10285295;28;20064;-59
2023/03/16 17:09:33;;;;;;;14.95;13.52;;;;;;;;;;10288607;28;20079;-60
2023/03/16 17:14:33;;;;;;;20.63;17.25;;;;;;;;;;10294780;28;20072;-59
2023/03/16 17:19:32;;;;;;;11.75;10.52;;;;;;;;;;10300135;28;20040;-59
2023/03/16 17:24:30;;;;;;;23.08;16.10;;;;;;;;;;10284926;28;20683;-59
2023/03/16 17:29:30;;;;;;;14.45;12.95;;;;;;;;;;10291337;28;20465;-57
2023/03/16 17:34:32;;;;;;;12.05;10.75;;;;;;;;;;10286081;28;20072;-59
2023/03/16 17:39:31;;;;;;;16.67;15.07;;;;;;;;;;10288245;28;20095;-59
2023/03/16 17:44:32;;;;;;;9.43;8.57;;;;;;;;;;10285910;28;20068;-59
2023/03/16 17:49:32;;;;;;;11.23;9.32;;;;;;;;;;10287221;28;20079;-60
2023/03/16 17:54:30;;;;;;;10.63;9.52;;;;;;;;;;10292547;28;20080;-59
2023/03/16 17:59:29;;;;;;;14.70;11.88;;;;;;;;;;10292815;28;20518;-60
2023/03/16 18:04:27;;;;;;;18.63;16.63;;;;;;;;;;10293385;28;20079;-59
2023/03/16 18:09:28;;;;;;;18.20;14.52;;;;;;;;;;10294462;28;20080;-60
2023/03/16 18:14:33;;;;;;;26.75;20.80;;;;;;;;;;10292597;28;20083;-60
2023/03/16 18:19:32;;;;;;;19.02;14.68;;;;;;;;;;10292843;28;20463;-60
2023/03/16 18:24:32;;;;;;;34.72;25.48;;;;;;;;;;10292580;28;20068;-60
2023/03/16 18:29:30;;;;;;;60.88;40.88;;;;;;;;;;10288310;28;20076;-58
2023/03/16 18:34:30;;;;;;;71.45;54.42;;;;;;;;;;10291689;28;20088;-57
2023/03/16 18:39:29;;;;;;;70.05;52.45;;;;;;;;;;10291430;28;20494;-58
2023/03/16 18:44:29;;;;;;;18.50;13.45;;;;;;;;;;10290445;28;20130;-60
2023/03/16 18:49:30;;;;;;;28.92;21.40;;;;;;;;;;10286619;28;20091;-62
2023/03/16 18:54:30;;;;;;;21.20;18.73;;;;;;;;;;10287262;28;20072;-60
2023/03/16 18:59:30;;;;;;;22.25;16.52;;;;;;;;;;10290593;28;20064;-59
2023/03/16 19:04:31;;;;;;;13.32;11.73;;;;;;;;;;10289168;28;20076;-60
2023/03/16 19:09:31;;;;;;;12.07;10.50;;;;;;;;;;10289510;28;20072;-60
2023/03/16 19:14:32;;;;;;;13.00;9.57;;;;;;;;;;10290108;28;20494;-59
2023/03/16 19:19:31;;;;;;;11.98;10.27;;;;;;;;;;10285160;28;20076;-60
2023/03/16 19:24:31;;;;;;;7.95;6.70;;;;;;;;;;10284289;28;20545;-60
2023/03/16 19:29:31;;;;;;;7.20;5.57;;;;;;;;;;10285510;28;20076;-60
2023/03/16 19:34:31;;;;;;;11.52;7.72;;;;;;;;;;10287270;28;20074;-59
2023/03/16 19:39:29;;;;;;;10.32;7.40;;;;;;;;;;10283467;28;20515;-59
2023/03/16 19:44:28;;;;;;;7.03;6.32;;;;;;;;;;10284212;28;20076;-60
2023/03/16 19:49:27;;;;;;;6.70;5.72;;;;;;;;;;10277638;28;20077;-58
2023/03/16 19:54:27;;;;;;;7.85;7.05;;;;;;;;;;10273898;28;20068;-61
2023/03/16 19:59:30;;;;;;;6.07;5.47;;;;;;;;;;10290522;28;20071;-60
2023/03/16 20:04:29;;;;;;;7.75;6.03;;;;;;;;;;10278814;28;20064;-60
2023/03/16 20:09:28;;;;;;;13.75;6.72;;;;;;;;;;10291290;28;20122;-58
2023/03/16 20:14:29;;;;;;;9.27;7.55;;;;;;;;;;10290249;28;20089;-60
2023/03/16 20:19:28;;;;;;;9.80;8.02;;;;;;;;;;10288901;28;20084;-60
2023/03/16 20:24:27;;;;;;;15.43;9.50;;;;;;;;;;10285833;28;20071;-58
2023/03/16 20:29:29;;;;;;;21.35;13.77;;;;;;;;;;10286061;28;20084;-59
2023/03/16 20:34:28;;;;;;;14.98;12.38;;;;;;;;;;10290671;28;20100;-60
2023/03/16 20:39:26;;;;;;;17.42;9.02;;;;;;;;;;10289346;28;20087;-59
2023/03/16 20:44:25;;;;;;;9.57;7.70;;;;;;;;;;10289134;28;20068;-58
2023/03/16 20:49:34;;;;;;;10.00;6.30;;;;;;;;;;10290673;28;20085;-61
2023/03/16 20:54:32;;;;;;;7.43;6.10;;;;;;;;;;10285969;28;20072;-59
2023/03/16 20:59:31;;;;;;;8.52;7.22;;;;;;;;;;10284498;28;20076;-59
2023/03/16 21:04:30;;;;;;;7.22;6.47;;;;;;;;;;10283920;28;20061;-60
2023/03/16 21:09:32;;;;;;;9.15;7.07;;;;;;;;;;10285366;28;20521;-57
2023/03/16 21:14:30;;;;;;;14.23;8.63;;;;;;;;;;10285724;28;20494;-60
2023/03/16 21:19:28;;;;;;;6.82;6.22;;;;;;;;;;10288225;28;20076;-60
2023/03/16 21:24:26;;;;;;;7.57;6.65;;;;;;;;;;10287365;28;20095;-59
2023/03/16 21:29:26;;;;;;;8.15;7.35;;;;;;;;;;10289318;28;20083;-59
2023/03/16 21:34:26;;;;;;;6.65;5.95;;;;;;;;;;10289784;28;20080;-59
2023/03/16 21:39:24;;;;;;;6.68;5.95;;;;;;;;;;10288405;28;20084;-60
2023/03/16 21:44:22;;;;;;;11.68;6.28;;;;;;;;;;10289300;28;20072;-63
2023/03/16 21:49:23;;;;;;;9.00;6.78;;;;;;;;;;10288193;28;20081;-58
2023/03/16 21:54:21;;;;;;;9.07;6.70;;;;;;;;;;10290613;28;20068;-59
2023/03/16 21:59:19;;;;;;;9.60;8.27;;;;;;;;;;10294979;28;20064;-59
2023/03/16 22:04:20;;;;;;;9.57;7.75;;;;;;;;;;10296797;28;20063;-59
2023/03/16 22:09:21;;;;;;;7.50;6.22;;;;;;;;;;10294399;28;20080;-59
2023/03/16 22:14:20;;;;;;;8.27;7.03;;;;;;;;;;10294020;28;20065;-60
2023/03/16 22:19:18;;;;;;;6.20;5.60;;;;;;;;;;10292097;28;20064;-59
2023/03/16 22:24:17;;;;;;;19.90;14.10;;;;;;;;;;10295858;28;20049;-60
2023/03/16 22:29:22;;;;;;;46.67;25.75;;;;;;;;;;10292452;28;20072;-59
2023/03/16 22:34:25;;;;;;;8.67;7.27;;;;;;;;;;10295129;28;20087;-58
2023/03/16 22:39:24;;;;;;;17.48;12.20;;;;;;;;;;10294947;28;20092;-59
2023/03/16 22:44:23;;;;;;;21.35;14.15;;;;;;;;;;10293607;28;20076;-59
2023/03/16 22:49:24;;;;;;;20.75;13.68;;;;;;;;;;10295073;28;20087;-60
2023/03/16 22:54:24;;;;;;;54.53;30.38;;;;;;;;;;10291913;28;20544;-59
2023/03/16 22:59:25;;;;;;;179.13;88.25;;;;;;;;;;10288109;28;20072;-60
2023/03/16 23:04:28;;;;;;;105.03;51.72;;;;;;;;;;10288744;28;20072;-59
2023/03/16 23:09:27;;;;;;;82.72;57.60;;;;;;;;;;10291101;28;20121;-60
2023/03/16 23:14:29;;;;;;;97.68;46.80;;;;;;;;;;10292374;28;20068;-59
2023/03/16 23:19:29;;;;;;;66.53;32.83;;;;;;;;;;10288818;28;20087;-60
2023/03/16 23:24:27;;;;;;;69.18;28.83;;;;;;;;;;10292114;28;20478;-60
2023/03/16 23:29:27;;;;;;;18.15;10.57;;;;;;;;;;10293371;28;20479;-59
2023/03/16 23:34:26;;;;;;;71.95;32.47;;;;;;;;;;10292249;28;20045;-59
2023/03/16 23:39:24;;;;;;;25.55;12.35;;;;;;;;;;10291790;28;20073;-59
2023/03/16 23:44:24;;;;;;;26.60;13.50;;;;;;;;;;10292426;28;20075;-59
2023/03/16 23:49:26;;;;;;;12.13;7.40;;;;;;;;;;10292601;28;20075;-59
2023/03/16 23:54:25;;;;;;;46.08;22.70;;;;;;;;;;10286849;28;20080;-60
2023/03/16 23:59:23;;;;;;;50.45;24.23;;;;;;;;;;10290439;28;20533;-60
